Map

Track Data

SID SEASON NUMBER BASIN SUBBASIN NAME ISO_TIME NATURE LAT LON WMO_WIND WMO_PRES WMO_AGENCY TRACK_TYPE DIST2LAND LANDFALL IFLAG USA_AGENCY USA_ATCF_ID USA_LAT USA_LON USA_RECORD USA_STATUS USA_WIND USA_PRES USA_SSHS USA_R34_NE USA_R34_SE USA_R34_SW USA_R34_NW USA_R50_NE USA_R50_SE USA_R50_SW USA_R50_NW USA_R64_NE USA_R64_SE USA_R64_SW USA_R64_NW USA_POCI USA_ROCI USA_RMW USA_EYE TOKYO_LAT TOKYO_LON TOKYO_GRADE TOKYO_WIND TOKYO_PRES TOKYO_R50_DIR TOKYO_R50_LONG TOKYO_R50_SHORT TOKYO_R30_DIR TOKYO_R30_LONG TOKYO_R30_SHORT TOKYO_LAND CMA_LAT CMA_LON CMA_CAT CMA_WIND CMA_PRES HKO_LAT HKO_LON HKO_CAT HKO_WIND HKO_PRES NEWDELHI_LAT NEWDELHI_LON NEWDELHI_GRADE NEWDELHI_WIND NEWDELHI_PRES NEWDELHI_CI NEWDELHI_DP NEWDELHI_POCI REUNION_LAT REUNION_LON REUNION_TYPE REUNION_WIND REUNION_PRES REUNION_TNUM REUNION_CI REUNION_RMW REUNION_R34_NE REUNION_R34_SE REUNION_R34_SW REUNION_R34_NW REUNION_R50_NE REUNION_R50_SE REUNION_R50_SW REUNION_R50_NW REUNION_R64_NE REUNION_R64_SE REUNION_R64_SW REUNION_R64_NW BOM_LAT BOM_LON BOM_TYPE BOM_WIND BOM_PRES BOM_TNUM BOM_CI BOM_RMW BOM_R34_NE BOM_R34_SE BOM_R34_SW BOM_R34_NW BOM_R50_NE BOM_R50_SE BOM_R50_SW BOM_R50_NW BOM_R64_NE BOM_R64_SE BOM_R64_SW BOM_R64_NW BOM_ROCI BOM_POCI BOM_EYE BOM_POS_METHOD BOM_PRES_METHOD NADI_LAT NADI_LON NADI_CAT NADI_WIND NADI_PRES WELLINGTON_LAT WELLINGTON_LON WELLINGTON_WIND WELLINGTON_PRES DS824_LAT DS824_LON DS824_STAGE DS824_WIND DS824_PRES TD9636_LAT TD9636_LON TD9636_STAGE TD9636_WIND TD9636_PRES TD9635_LAT TD9635_LON TD9635_WIND TD9635_PRES TD9635_ROCI NEUMANN_LAT NEUMANN_LON NEUMANN_CLASS NEUMANN_WIND NEUMANN_PRES MLC_LAT MLC_LON MLC_CLASS MLC_WIND MLC_PRES USA_GUST BOM_GUST BOM_GUST_PER REUNION_GUST REUNION_GUST_PER USA_SEAHGT USA_SEARAD_NE USA_SEARAD_SE USA_SEARAD_SW USA_SEARAD_NW STORM_SPEED STORM_DIR
1931355S16060 1932 63 SI MM NOT_NAMED 1931-12-20 18:00:00 NR -16.0000 60.3000 main 534 534 __________O___ -1 -16.0000 60.3000 7 1 223
1931355S16060 1932 63 SI MM NOT_NAMED 1931-12-20 21:00:00 NR -16.0500 60.2530 main 534 519 __________P___ -1 -16.0500 60.2530 7 2 221
1931355S16060 1932 63 SI MM NOT_NAMED 1931-12-21 00:00:00 NR -16.1200 60.1948 main 519 504 __________P___ -1 -16.1200 60.1948 7 2 216
1931355S16060 1932 63 SI MM NOT_NAMED 1931-12-21 03:00:00 NR -16.2300 60.1142 main 504 479 __________P___ -1 -16.2300 60.1142 7 3 213
1931355S16060 1932 63 SI MM NOT_NAMED 1931-12-21 06:00:00 NR -16.4000 60.0000 main 479 455 __________O___ -1 -16.4000 60.0000 7 5 212
1931355S16060 1932 63 SI MM NOT_NAMED 1931-12-21 09:00:00 NR -16.6425 59.8442 main 449 415 __________P___ -1 -16.6425 59.8442 7 6 212
1931355S16060 1932 63 SI MM NOT_NAMED 1931-12-21 12:00:00 NR -16.9400 59.6526 main 415 370 __________P___ -1 -16.9400 59.6526 7 7 212
1931355S16060 1932 63 SI MM NOT_NAMED 1931-12-21 15:00:00 NR -17.2675 59.4347 main 360 321 __________P___ -1 -17.2675 59.4347 7 8 213
1931355S16060 1932 63 SI MM NOT_NAMED 1931-12-21 18:00:00 NR -17.6000 59.2000 main 321 281 __________O___ -1 -17.6000 59.2000 7 8 215
1931355S16060 1932 63 SI MM NOT_NAMED 1931-12-21 21:00:00 NR -17.8999 58.9683 main 281 237 __________P___ -1 -17.8999 58.9683 7 8 217
1931355S16060 1932 63 SI MM NOT_NAMED 1931-12-22 00:00:00 NR -18.1999 58.7222 main 237 197 __________P___ -1 -18.1999 58.7222 7 8 219
1931355S16060 1932 63 SI MM NOT_NAMED 1931-12-22 03:00:00 NR -18.4999 58.4651 main 197 154 __________P___ -1 -18.4999 58.4651 7 8 220
1931355S16060 1932 63 SI MM NOT_NAMED 1931-12-22 06:00:00 NR -18.8000 58.2000 main 154 113 __________O___ -1 -18.8000 58.2000 7 8 220
1931355S16060 1932 63 SI MM NOT_NAMED 1931-12-22 09:00:00 NR -19.1162 57.9241 main 113 78 __________P___ -1 -19.1162 57.9241 7 8 220
1931355S16060 1932 63 SI MM NOT_NAMED 1931-12-22 12:00:00 NR -19.4300 57.6426 main 78 45 __________P___ -1 -19.4300 57.6426 7 8 221
1931355S16060 1932 63 SI MM NOT_NAMED 1931-12-22 15:00:00 NR -19.7288 57.3648 main 45 38 __________P___ -1 -19.7288 57.3648 7 8 222
1931355S16060 1932 63 SI MM NOT_NAMED 1931-12-22 18:00:00 NR -20.0000 57.1000 main 43 43 __________O___ -1 -20.0000 57.1000 7 7 224
1931355S16060 1932 63 SI MM NOT_NAMED 1931-12-22 21:00:00 NR -20.2123 56.8640 main 53 53 __________P___ -1 -20.2123 56.8640 7 6 227
1931355S16060 1932 63 SI MM NOT_NAMED 1931-12-23 00:00:00 NR -20.3997 56.6415 main 73 72 __________P___ -1 -20.3997 56.6415 7 6 228
1931355S16060 1932 63 SI MM NOT_NAMED 1931-12-23 03:00:00 NR -20.5873 56.4233 main 83 53 __________P___ -1 -20.5873 56.4233 7 6 226
1931355S16060 1932 63 SI MM NOT_NAMED 1931-12-23 06:00:00 NR -20.8000 56.2000 main 53 20 __________O___ -1 -20.8000 56.2000 7 7 222
1931355S16060 1932 63 SI MM NOT_NAMED 1931-12-23 09:00:00 NR -21.0793 55.9573 main 20 0 __________P___ -1 -21.0793 55.9573 7 7 218
1931355S16060 1932 63 SI MM NOT_NAMED 1931-12-23 12:00:00 NR -21.3849 55.7076 main 10 10 __________P___ -1 -21.3849 55.7076 7 8 217
1931355S16060 1932 63 SI MM NOT_NAMED 1931-12-23 15:00:00 NR -21.6981 55.4541 main 35 35 __________P___ -1 -21.6981 55.4541 7 8 218
1931355S16060 1932 63 SI MM NOT_NAMED 1931-12-23 18:00:00 NR -22.0000 55.2000 main 78 78 __________O___ -1 -22.0000 55.2000 7 7 219
1931355S16060 1932 63 SI MM NOT_NAMED 1931-12-23 21:00:00 NR -22.2764 54.9480 main 119 119 __________P___ -1 -22.2764 54.9480 7 7 221
1931355S16060 1932 63 SI MM NOT_NAMED 1931-12-24 00:00:00 NR -22.5303 54.6979 main 147 147 __________P___ -1 -22.5303 54.6979 7 7 223
1931355S16060 1932 63 SI MM NOT_NAMED 1931-12-24 03:00:00 NR -22.7690 54.4489 main 191 191 __________P___ -1 -22.7690 54.4489 7 7 224
1931355S16060 1932 63 SI MM NOT_NAMED 1931-12-24 06:00:00 NR -23.0000 54.2000 main 221 __________O___ -1 -23.0000 54.2000 7 7 225

About IBTrACS Database

This database is a web-friendly format of International Best Track Archive for Climate Stewardship (IBTrACS), a global best track data archive curated by NOAA dating back to 1842.

Updated: 2021-12-03